Tiempo atmosférico en la estación meteorológica de Son Servera, Illes Balears (28 m.)



Fecha
DESCASC
Temp. máxima en grados centígrados (hora)
DESCASC
Temp. mínima en grados centígrados (hora)
DESCASC
Temp. media en grados centígrados
DESCASC
Racha de viento máxima en m/sg (hora)
DESCASC
Velocidad máxima media en intervalos de 10 minutos(hora)
DESCASC
Precipitaciones diarias en mm
DESCASC
Precipitaciones de 00:00 a 06:00 en mm
DESCASC
Precipitaciones de 06:00 a 12:00 en mm
DESCASC
Precipitaciones de 12:00 a 18:00 en mm
DESCASC
Precipitaciones de 18:00 a 24:00 en mm
DESCASC
15-08-2019 28.6 (15:50) 18.6 (06:50) 23.6 8.61 (17:00) 4.72 (16:20) 0 0 0 0 0
14-08-2019 30.7 (15:10) 17.7 (00:00) 24.2 9.17 (12:40) 5.28 (17:50) 0 0 0 0 0
13-08-2019 27.5 (16:10) 20.1 (00:00) 23.8 11.39 (12:10) 6.67 (09:00) 0 0 0 0 0
12-08-2019 27.8 (11:40) 24.3 (00:00) 26 10.28 (23:10) 6.11 (19:00) 0 0 0 0 0
11-08-2019 31.2 (16:00) 23.4 (00:00) 27.3 7.22 (13:40) 4.44 (15:40) 0 0 0 0 0
10-08-2019 33.7 (15:30) 22.3 (00:00) 28 7.5 (14:20) 5.28 (04:00) 0 0 0 0 0
09-08-2019 30.7 (17:20) 21.3 (00:00) 26 8.89 (15:50) 6.39 (15:50) 0 0 0 0 0
08-08-2019 31.6 (16:50) 22.5 (00:00) 27.1 8.33 (14:40) 5.83 (14:50) 0 0 0 0 0
07-08-2019 30.1 (13:50) 21.8 (00:00) 25.9 6.94 (13:00) 4.17 (14:10) 0 0 0 0 0
06-08-2019 31.5 (16:20) 22.2 (00:00) 26.9 9.44 (16:20) 5 (16:40) 0 0 0 0 0
05-08-2019 30.2 (14:00) 20.3 (00:00) 25.3 6.11 (14:20) 3.89 (15:00) 0 0 0 0 0
04-08-2019 31.6 (09:20) 20 (00:00) 25.8 5.83 (15:30) 3.61 (14:40) 0 0 0 0 0
03-08-2019 32.5 (13:20) 19.6 (00:00) 26.1 9.17 (11:10) 5 (11:20) 0 0 0 0 0
02-08-2019 30.6 (16:20) 21.9 (00:00) 26.3 9.72 (09:30) 6.67 (11:00) 0 0 0 0 0
01-08-2019 30.4 (15:50) 22.9 (00:00) 26.6 8.33 (08:30) 4.44 (08:50) 0 0 0 0 0
31-07-2019 28.9 (16:10) 23.5 (00:00) 26.2 11.11 (10:40) 5.83 (10:40) 0 0 0 0 0
30-07-2019 31.6 (11:10) 19.7 (00:00) 25.7 7.78 (16:40) 5 (15:30) 0 0 0 0 0
29-07-2019 31.8 (15:10) 18 (00:00) 24.9 11.11 (16:00) 7.22 (16:50) 0 0 0 0 0
28-07-2019 28.1 (12:40) 20.3 (00:00) 24.2 7.5 (12:20) 4.17 (13:30) 0.6 0 0 0.6 0
27-07-2019 33.3 (15:20) 21.3 (00:00) 27.3 13.89 (14:40) 7.78 (15:30) 0 0 0 0 0
26-07-2019 29.6 (15:00) 20.9 (00:00) 25.3 6.94 (13:30) 3.89 (14:30) 0 0 0 0 0
25-07-2019 30.4 (15:50) 21.9 (00:00) 26.1 6.39 (15:20) 4.44 (16:40) 0 0 0 0 0
24-07-2019 31.6 (14:30) 20.3 (00:00) 25.9 7.22 (13:50) 5.28 (13:30) 0 0 0 0 0
23-07-2019 31.1 (11:50) 20.8 (00:00) 25.9 5.83 (16:10) 3.61 (18:00) 0 0 0 0 0
22-07-2019 31.8 (16:50) 20.4 (00:00) 26.1 5.56 (11:50) 3.61 (11:50) 0 0 0 0 0
21-07-2019 29.5 (14:20) 20.9 (00:00) 25.2 6.94 (13:50) 4.44 (10:50) 0 0 0 0 0
20-07-2019 29.1 (14:00) 20.9 (00:00) 25 7.22 (17:10) 4.72 (17:10) 0 0 0 0 0
19-07-2019 28.6 (14:40) 19.9 (00:00) 24.3 7.22 (15:40) 4.44 (16:10) 0 0 0 0 0

Gráficas

Temp. máximas Temp. mínimas Temp. medias Precipitaciones Rachas de viento máximas Velocidades máximas media en intervalos de 10 minutos

Datos horarios

Fecha y hora oficial Temperatura (ºC) Velocidad del viento (km/h) Dirección del viento Racha (km/h) Dirección de racha Precipitación (mm) Presión (hPa) Tendencia (hPa) Humedad (%)
2019-08-17 23:00:00 25.6 6 Sur 14 Sur 0 -- -- 87
2019-08-17 22:00:00 25.8 6 Sur 13 Sur 0 -- -- 87
2019-08-17 21:00:00 26 5 Sur 20 Sudoeste 0 -- -- 85
2019-08-17 20:00:00 26.9 8 Sur 20 Sur 0 -- -- 81
2019-08-17 19:00:00 27.7 10 Sur 21 Sur 0 -- -- 76
2019-08-17 18:00:00 28.6 11 Sur 23 Sur 0 -- -- 73
2019-08-17 17:00:00 28.6 13 Sur 26 Sur 0 -- -- 72
2019-08-17 16:00:00 28.7 14 Sur 27 Sur 0 -- -- 72
2019-08-17 15:00:00 29.3 13 Sur 23 Sur 0 -- -- 69
2019-08-17 14:00:00 29.1 12 Sur 22 Sudeste 0 -- -- 69
2019-08-17 13:00:00 28.4 12 Sur 21 Sur 0 -- -- 71
2019-08-17 12:00:00 28.4 12 Sur 20 Sudeste 0 -- -- 71
2019-08-17 11:00:00 28.2 10 Sur 17 Sur 0 -- -- 72
2019-08-17 10:00:00 27.7 9 Sur 14 Sur 0 -- -- 72
2019-08-17 09:00:00 27.5 0 Calma 7 Noroeste 0 -- -- 73
2019-08-17 08:00:00 23.4 6 Noroeste 10 Noroeste 0 -- -- 91
2019-08-17 07:00:00 20.1 7 Noroeste 9 Noroeste 0 -- -- 93
2019-08-17 06:00:00 20.6 6 Noroeste 9 Noroeste 0 -- -- 93
2019-08-17 05:00:00 20.6 6 Noroeste 8 Noroeste 0 -- -- 91
2019-08-17 04:00:00 21.2 6 Norte 10 Noroeste 0 -- -- 90
2019-08-17 03:00:00 21.2 6 Norte 8 Noroeste 0 -- -- 89
2019-08-17 02:00:00 21.4 5 Norte 8 Noroeste 0 -- -- 88
2019-08-17 01:00:00 21.9 6 Noroeste 8 Noroeste 0 -- -- 87
2019-08-17 00:00:00 22.7 4 Noroeste 10 Noroeste 0 -- -- 86
2019-08-16 23:00:00 23.6 0 Calma 9 Oeste 0 -- -- 81
2019-08-16 22:00:00 25 8 Sudoeste 17 Sudoeste 0 -- -- 78
2019-08-16 21:00:00 25.6 11 Sudoeste 17 Sudoeste 0 -- -- 74
2019-08-16 20:00:00 26.4 10 Sudoeste 18 Sudoeste 0 -- -- 69
2019-08-16 19:00:00 27.4 9 Sur 21 Sur 0 -- -- 66
2019-08-16 18:00:00 27.7 12 Sur 23 Sudeste 0 -- -- 62
2019-08-16 17:00:00 28.1 11 Sur 23 Sudeste 0 -- -- 64
2019-08-16 16:00:00 27.8 12 Sur 25 Sudeste 0 -- -- 64
2019-08-16 15:00:00 28.1 12 Sur 24 Sudeste 0 -- -- 63
2019-08-16 14:00:00 27.7 13 Sur 23 Sur 0 -- -- 63
2019-08-16 13:00:00 27.5 15 Sudeste 24 Sudeste 0 -- -- 63
2019-08-16 12:00:00 27.4 14 Sudeste 23 Sudeste 0 -- -- 63
2019-08-16 11:00:00 27.2 12 Sudeste 21 Sudeste 0 -- -- 64
2019-08-16 10:00:00 27 11 Sudeste 19 Sudeste 0 -- -- 66
2019-08-16 09:00:00 25.8 10 Sudeste 15 Sudeste 0 -- -- 70
2019-08-16 08:00:00 24.1 5 Noroeste 9 Noroeste 0 -- -- 81
2019-08-16 07:00:00 20.9 7 Noroeste 10 Noroeste 0 -- -- 87
2019-08-16 06:00:00 21.6 0 Calma -- -- 0 -- -- 85
2019-08-16 05:00:00 22.7 0 Calma 7 Sudeste 0 -- -- 82
2019-08-16 04:00:00 24.1 5 Sudeste 15 Sudeste 0 -- -- 77
2019-08-16 03:00:00 24.5 8 Sudeste 18 Sudeste 0 -- -- 78
2019-08-16 02:00:00 24.7 9 Sudeste 18 Sudeste 0 -- -- 77
2019-08-16 01:00:00 24.1 5 Sudeste 13 Sudeste 0 -- -- 77
2019-08-16 00:00:00 23.1 0 Calma 6 Sur 0 -- -- 85
2019-08-15 23:00:00 24.5 0 Calma 9 Sur 0 -- -- 80
2019-08-15 22:00:00 25.1 3 Sur 15 Sudoeste 0 -- -- 80
2019-08-15 21:00:00 25.5 5 Sur 18 Sudoeste 0 -- -- 78
2019-08-15 20:00:00 26.3 9 Sur 21 Sur 0 -- -- 74
2019-08-15 19:00:00 27.2 10 Sur 24 Sur 0 -- -- 71
2019-08-15 18:00:00 27.9 12 Sur 27 Sudoeste 0 -- -- 68
2019-08-15 17:00:00 27.9 14 Sur 31 Sudeste 0 -- -- 68
2019-08-15 16:00:00 27.7 14 Sur 27 Sur 0 -- -- 69
2019-08-15 15:00:00 28 12 Sur 23 Sur 0 -- -- 66
2019-08-15 14:00:00 27.4 13 Sur 23 Sudeste 0 -- -- 70
2019-08-15 13:00:00 27.6 11 Sur 22 Sudeste 0 -- -- 66
2019-08-15 12:00:00 27.3 14 Sudeste 22 Sudeste 0 -- -- 66
2019-08-15 11:00:00 27.2 11 Sudeste 18 Sudeste 0 -- -- 68
2019-08-15 10:00:00 27.9 5 Sur 12 Norte 0 -- -- 64
2019-08-15 09:00:00 26.8 3 Nordeste 7 Norte 0 -- -- 69
2019-08-15 08:00:00 21.7 5 Norte 10 Noroeste 0 -- -- 88
2019-08-15 07:00:00 18.6 8 Noroeste 10 Noroeste 0 -- -- 93
2019-08-15 06:00:00 18.9 7 Noroeste 10 Noroeste 0 -- -- 92
2019-08-15 05:00:00 19.3 8 Noroeste 10 Norte 0 -- -- 91
2019-08-15 04:00:00 19.6 8 Noroeste 12 Noroeste 0 -- -- 89
2019-08-15 03:00:00 20 9 Noroeste 11 Noroeste 0 -- -- 89
2019-08-15 02:00:00 20.2 7 Noroeste 10 Noroeste 0 -- -- 88
2019-08-15 01:00:00 20.8 7 Noroeste 11 Noroeste 0 -- -- 86
2019-08-15 00:00:00 21.5 5 Noroeste 8 Noroeste 0 -- -- 84
2019-08-14 23:00:00 22.3 5 Noroeste 8 Noroeste 0 -- -- 80
2019-08-14 22:00:00 23.5 4 Noroeste 8 Nordeste 0 -- -- 75
2019-08-14 21:00:00 25 5 Nordeste 12 Nordeste 0 -- -- 71
2019-08-14 20:00:00 26.2 9 Nordeste 19 Nordeste 0 -- -- 67
2019-08-14 19:00:00 27 14 Nordeste 29 Nordeste 0 -- -- 65
2019-08-14 18:00:00 28.3 18 Este 30 Este 0 -- -- 61
2019-08-14 17:00:00 29.5 15 Este 28 Nordeste 0 -- -- 57
2019-08-14 16:00:00 29.4 13 Sudeste 23 Sudeste 0 -- -- 55
2019-08-14 15:00:00 29.9 8 Este 32 Sur 0 -- -- 50
2019-08-14 14:00:00 28.6 13 Sur 28 Sur 0 -- -- 59
2019-08-14 13:00:00 27.2 14 Sudoeste 33 Sudoeste 0 -- -- 65
2019-08-14 12:00:00 27.4 15 Sudoeste 24 Sudoeste 0 -- -- 64
2019-08-14 11:00:00 28.8 8 Oeste 24 Oeste 0 -- -- 53
2019-08-14 10:00:00 26.3 14 Oeste 23 Oeste 0 -- -- 62
2019-08-14 09:00:00 25.6 9 Oeste 18 Oeste 0 -- -- 68
2019-08-14 08:00:00 20.4 4 Norte 9 Noroeste 0 -- -- 83
2019-08-14 07:00:00 17.7 8 Noroeste 11 Noroeste 0 -- -- 89
2019-08-14 06:00:00 18.3 6 Norte 10 Noroeste 0 -- -- 87
2019-08-14 05:00:00 18.6 8 Noroeste 11 Noroeste 0 -- -- 87
2019-08-14 04:00:00 18.9 8 Noroeste 11 Noroeste 0 -- -- 85
2019-08-14 03:00:00 19.2 7 Noroeste 11 Noroeste 0 -- -- 83
2019-08-14 02:00:00 19.4 8 Noroeste 12 Noroeste 0 -- -- 82
2019-08-14 01:00:00 19.6 7 Noroeste 11 Noroeste 0 -- -- 80
2019-08-14 00:00:00 20.1 6 Noroeste 9 Noroeste 0 -- -- 76
2019-08-13 23:00:00 20.8 6 Noroeste 9 Noroeste 0 -- -- 74
2019-08-13 22:00:00 21.5 0 Calma 6 Nordeste 0 -- -- 71
2019-08-13 21:00:00 23.1 0 Calma 15 Nordeste 0 -- -- 67
2019-08-13 20:00:00 24.1 9 Nordeste 21 Nordeste 0 -- -- 63
2019-08-13 19:00:00 25.3 14 Este 28 Nordeste 0 -- -- 58
2019-08-13 18:00:00 26.3 15 Nordeste 29 Este 0 -- -- 55
2019-08-13 17:00:00 26.5 15 Nordeste 28 Este 0 -- -- 55
2019-08-13 16:00:00 27.2 15 Este 32 Nordeste 0 -- -- 52
2019-08-13 15:00:00 26.7 14 Nordeste 31 Norte 0 -- -- 53
2019-08-13 14:00:00 26.7 18 Nordeste 33 Este 0 -- -- 52
2019-08-13 13:00:00 25.4 16 Nordeste 41 Este 0 -- -- 56
2019-08-13 12:00:00 25.7 22 Nordeste 40 Nordeste 0 -- -- 56
2019-08-13 11:00:00 25.1 18 Este 37 Este 0 -- -- 57
2019-08-13 10:00:00 24.5 19 Nordeste 39 Nordeste 0 -- -- 57
2019-08-13 09:00:00 23.9 24 Nordeste 41 Nordeste 0 -- -- 58
2019-08-13 08:00:00 23.4 21 Nordeste 37 Nordeste 0 -- -- 61
2019-08-13 07:00:00 23 17 Nordeste 35 Nordeste 0 -- -- 63
2019-08-13 06:00:00 22.9 16 Nordeste 35 Nordeste 0 -- -- 64
2019-08-13 05:00:00 23.2 15 Nordeste 33 Nordeste 0 -- -- 65
2019-08-13 04:00:00 23.5 15 Nordeste 34 Este 0 -- -- 61
2019-08-13 03:00:00 23.8 17 Nordeste 40 Nordeste 0 -- -- 63
2019-08-13 02:00:00 24 12 Nordeste 36 Este 0 -- -- 67
2019-08-13 01:00:00 24.5 22 Este 35 Nordeste 0 -- -- 67
2019-08-13 00:00:00 24.7 18 Nordeste 37 Nordeste 0 -- -- 65
2019-08-12 23:00:00 24.7 18 Nordeste 34 Nordeste 0 -- -- 64
2019-08-12 22:00:00 24.5 14 Nordeste 24 Nordeste 0 -- -- 66
2019-08-12 21:00:00 24.3 8 Nordeste 25 Nordeste 0 -- -- 69
2019-08-12 20:00:00 25.2 10 Nordeste 33 Norte 0 -- -- 68
2019-08-12 19:00:00 26.1 22 Nordeste 35 Nordeste 0 -- -- 69
2019-08-12 18:00:00 26.4 19 Nordeste 35 Nordeste 0 -- -- 70
2019-08-12 17:00:00 26.7 19 Nordeste 32 Norte 0 -- -- 70
2019-08-12 16:00:00 26.3 21 Nordeste 33 Nordeste 0 -- -- 74
2019-08-12 15:00:00 25.8 13 Nordeste 28 Norte 0 -- -- 77
2019-08-12 14:00:00 25.9 13 Nordeste 23 Nordeste 0 -- -- 78
2019-08-12 13:00:00 25.9 17 Nordeste 30 Nordeste 0 -- -- 80
2019-08-12 12:00:00 26.9 15 Nordeste 25 Nordeste 0 -- -- 77
2019-08-12 11:00:00 26.9 12 Nordeste 21 Nordeste 0 -- -- 75
2019-08-12 10:00:00 26 13 Nordeste 25 Nordeste 0 -- -- 79
2019-08-12 09:00:00 25.5 18 Nordeste 31 Nordeste 0 -- -- 81
2019-08-12 08:00:00 25.2 20 Nordeste 33 Nordeste 0 -- -- 84
2019-08-12 07:00:00 25.7 14 Nordeste 28 Nordeste 0 -- -- 86
2019-08-12 06:00:00 25.5 7 Norte 10 Norte 0 -- -- 89
2019-08-12 05:00:00 25.4 4 Norte 12 Noroeste 0 -- -- 90
2019-08-12 04:00:00 25.6 2 Nordeste 11 Nordeste 0 -- -- 89
2019-08-12 03:00:00 26.2 5 Nordeste 9 Nordeste 0 -- -- 88
2019-08-12 02:00:00 25.9 0 Calma -- -- 0 -- -- 90
2019-08-12 01:00:00 26.2 0 Calma -- -- 0 -- -- 90
2019-08-12 00:00:00 26.5 0 Calma 5 Este 0 -- -- 89
2019-08-11 23:00:00 26.6 4 Este 8 Este 0 -- -- 89
2019-08-11 22:00:00 26.8 5 Este 9 Este 0 -- -- 88
2019-08-11 21:00:00 26.9 5 Sudeste 12 Sudeste 0 -- -- 87
2019-08-11 20:00:00 27.5 9 Sudeste 15 Sudeste 0 -- -- 85
2019-08-11 19:00:00 28.8 8 Sur 20 Sur 0 -- -- 79
2019-08-11 18:00:00 31 9 Sudoeste 21 Sudeste 0 -- -- 66
2019-08-11 17:00:00 30 14 Sudeste 23 Sudeste 0 -- -- 74
2019-08-11 16:00:00 31.2 12 Sur 26 Sudoeste 0 -- -- 68
2019-08-11 15:00:00 30.4 13 Sudeste 26 Sudeste 0 -- -- 72
2019-08-11 14:00:00 30.8 13 Sur 26 Sur 0 -- -- 71
2019-08-11 13:00:00 30 13 Sur 24 Sur 0 -- -- 75
2019-08-11 12:00:00 30 12 Sur 23 Sur 0 -- -- 75
2019-08-11 11:00:00 29.2 10 Sudeste 19 Sudeste 0 -- -- 78
2019-08-11 10:00:00 28.6 9 Sur 14 Sur 0 -- -- 81
2019-08-11 09:00:00 27.6 6 Sur 11 Sur 0 -- -- 86
2019-08-11 08:00:00 24.5 0 Calma -- -- 0 -- -- 95
2019-08-11 07:00:00 23.5 0 Calma -- -- 0 -- -- 95
2019-08-11 06:00:00 23.8 0 Calma -- -- 0 -- -- 95
2019-08-11 05:00:00 24.2 0 Calma -- -- 0 -- -- 94
2019-08-11 04:00:00 24.7 0 Calma -- -- 0 -- -- 94
2019-08-11 03:00:00 25.5 0 Calma -- -- 0 -- -- 92
2019-08-11 02:00:00 25.7 0 Calma -- -- 0 -- -- 92
2019-08-11 01:00:00 26 0 Calma -- -- 0 -- -- 91
2019-08-11 00:00:00 26.7 0 Calma 5 Sur 0 -- -- 90
2019-08-10 23:00:00 26.7 0 Calma 10 Sudeste 0 -- -- 89
2019-08-10 22:00:00 27 5 Este 11 Este 0 -- -- 88
2019-08-10 21:00:00 27.1 6 Sudeste 13 Sudeste 0 -- -- 86
2019-08-10 20:00:00 28.3 8 Sudeste 14 Sudeste 0 -- -- 79
2019-08-10 19:00:00 29.7 9 Sudeste 17 Sudeste 0 -- -- 70
2019-08-10 18:00:00 30.3 13 Sudeste 23 Sudeste 0 -- -- 68
2019-08-10 17:00:00 32.5 12 Sudeste 22 Sudeste 0 -- -- 60
2019-08-10 16:00:00 32.9 13 Sudeste 23 Este 0 -- -- 58
2019-08-10 15:00:00 33.4 11 Este 27 Nordeste 0 -- -- 53
2019-08-10 14:00:00 32.3 18 Nordeste 26 Nordeste 0 -- -- 63
2019-08-10 13:00:00 33 14 Nordeste 24 Nordeste 0 -- -- 57
2019-08-10 12:00:00 32.4 17 Nordeste 26 Nordeste 0 -- -- 59
2019-08-10 11:00:00 30.8 7 Sur 15 Sur 0 -- -- 65
2019-08-10 10:00:00 30 7 Sur 11 Sur 0 -- -- 62
2019-08-10 09:00:00 30.1 0 Calma 8 Noroeste 0 -- -- 57
2019-08-10 08:00:00 24.6 3 Norte 10 Noroeste 0 -- -- 82
2019-08-10 07:00:00 22.3 7 Noroeste 12 Noroeste 0 -- -- 91
2019-08-10 06:00:00 23.1 0 Calma 17 Oeste 0 -- -- 91
2019-08-10 05:00:00 24.2 5 Noroeste 24 Oeste 0 -- -- 91
2019-08-10 04:00:00 25 19 Oeste 25 Oeste 0 -- -- 90
2019-08-10 03:00:00 24.9 10 Oeste 23 Oeste 0 -- -- 88
2019-08-10 02:00:00 22.9 0 Calma -- -- 0 -- -- 88
2019-08-10 01:00:00 23.3 0 Calma 9 Oeste 0 -- -- 86
2019-08-10 00:00:00 25.2 8 Oeste 19 Oeste 0 -- -- 86
2019-08-09 23:00:00 25.4 5 Noroeste 17 Oeste 0 -- -- 78
2019-08-09 22:00:00 25.5 0 Calma 10 Sur 0 -- -- 85
2019-08-09 21:00:00 27.3 0 Calma 14 Sudoeste 0 -- -- 80
2019-08-09 20:00:00 29 11 Sudoeste 24 Sudoeste 0 -- -- 76
2019-08-09 19:00:00 29.8 17 Sudoeste 26 Sudoeste 0 -- -- 73
2019-08-09 18:00:00 30 17 Sudoeste 32 Sudoeste 0 -- -- 69
2019-08-09 17:00:00 30.3 21 Sudoeste 32 Sudoeste 0 -- -- 69
2019-08-09 16:00:00 30.5 22 Sudoeste 32 Sur 0 -- -- 69
2019-08-09 15:00:00 30.2 19 Sur 30 Sur 0 -- -- 71
2019-08-09 14:00:00 30.2 17 Sudoeste 28 Sur 0 -- -- 70
2019-08-09 13:00:00 29.7 19 Sudoeste 30 Sudoeste 0 -- -- 70
2019-08-09 12:00:00 29.3 16 Sur 26 Sur 0 -- -- 76
2019-08-09 11:00:00 29.4 10 Sur 20 Sur 0 -- -- 76
2019-08-09 10:00:00 28.3 10 Sur 17 Sudoeste 0 -- -- 76
2019-08-09 09:00:00 27 8 Sur 15 Sur 0 -- -- 84
2019-08-09 08:00:00 25.2 0 Calma -- -- 0 -- -- 93
2019-08-09 07:00:00 23.2 0 Calma 5 Norte 0 -- -- 95
2019-08-09 06:00:00 21.4 3 Noroeste 6 Noroeste 0 -- -- 95
2019-08-09 05:00:00 22.2 3 Norte 7 Norte 0 -- -- 93
2019-08-09 04:00:00 22.3 4 Noroeste 8 Oeste 0 -- -- 89
2019-08-09 03:00:00 23.3 9 Oeste 18 Oeste 0 -- -- 89
2019-08-09 02:00:00 22.3 5 Noroeste 6 Noroeste 0 -- -- 88
2019-08-09 01:00:00 23.2 0 Calma -- -- 0 -- -- 85
2019-08-09 00:00:00 24.5 0 Calma 6 Norte 0 -- -- 83
2019-08-08 23:00:00 25.4 4 Sur 7 Sudeste 0 -- -- 85
2019-08-08 22:00:00 26.3 4 Noroeste 6 Sudoeste 0 -- -- 86
2019-08-08 21:00:00 27.8 4 Sur 13 Sudoeste 0 -- -- 82
2019-08-08 20:00:00 29.1 8 Sur 17 Sur 0 -- -- 77
2019-08-08 19:00:00 29.9 8 Sur 23 Sur 0 -- -- 74
2019-08-08 18:00:00 29.6 13 Sur 29 Sur 0 -- -- 73
2019-08-08 17:00:00 30.5 12 Sur 27 Sudoeste 0 -- -- 68
2019-08-08 16:00:00 30.2 17 Sur 30 Sudoeste 0 -- -- 71
2019-08-08 15:00:00 30.4 18 Sudoeste 30 Sudoeste 0 -- -- 70
2019-08-08 14:00:00 30 14 Sur 25 Sudeste 0 -- -- 72
2019-08-08 13:00:00 29.8 13 Sudeste 21 Sudeste 0 -- -- 72
2019-08-08 12:00:00 29.5 12 Sudeste 21 Sudeste 0 -- -- 75
2019-08-08 11:00:00 29.1 9 Sur 18 Sudeste 0 -- -- 73
2019-08-08 10:00:00 28.6 8 Sudeste 13 Sudeste 0 -- -- 76
2019-08-08 09:00:00 28.1 5 Sudeste 9 Sudeste 0 -- -- 78
2019-08-08 08:00:00 26.3 2 Noroeste 8 Noroeste 0 -- -- 86
2019-08-08 07:00:00 23.3 3 Noroeste 8 Noroeste 0 -- -- 91
2019-08-08 06:00:00 23.2 5 Noroeste 10 Noroeste 0 -- -- 92
2019-08-08 05:00:00 23 4 Noroeste 8 Noroeste 0 -- -- 92
2019-08-08 04:00:00 22.6 5 Norte 7 Noroeste 0 -- -- 93
2019-08-08 03:00:00 22.6 5 Noroeste 9 Norte 0 -- -- 92
2019-08-08 02:00:00 23.3 5 Noroeste 9 Noroeste 0 -- -- 92
2019-08-08 01:00:00 23.9 4 Noroeste 8 Noroeste 0 -- -- 90
2019-08-08 00:00:00 24.8 5 Noroeste 9 Noroeste 0 -- -- 89
2019-08-07 23:00:00 25.6 4 Norte 8 Norte 0 -- -- 87
2019-08-07 22:00:00 26.1 6 Norte 17 Nordeste 0 -- -- 85
2019-08-07 21:00:00 26.8 7 Nordeste 14 Nordeste 0 -- -- 78
2019-08-07 20:00:00 28.1 4 Nordeste 15 Sudeste 0 -- -- 75
2019-08-07 19:00:00 28.2 10 Sudeste 18 Sudeste 0 -- -- 79
2019-08-07 18:00:00 29 10 Sudeste 21 Sudeste 0 -- -- 73
2019-08-07 17:00:00 28.7 10 Sudeste 20 Sudeste 0 -- -- 77
2019-08-07 16:00:00 28.9 10 Sudeste 18 Sudeste 0 -- -- 75
2019-08-07 15:00:00 28.9 12 Sudeste 23 Sudeste 0 -- -- 77
2019-08-07 14:00:00 30.1 14 Sudeste 24 Sur 0 -- -- 71
2019-08-07 13:00:00 29.5 14 Sudeste 25 Sudeste 0 -- -- 74
2019-08-07 12:00:00 29.2 11 Sur 24 Sudoeste 0 -- -- 75
2019-08-07 11:00:00 28.1 11 Sur 19 Sudeste 0 -- -- 77
2019-08-07 10:00:00 28.2 8 Sur 13 Sur 0 -- -- 76
2019-08-07 09:00:00 26.6 5 Sur 8 Sudoeste 0 -- -- 82
2019-08-07 08:00:00 23.8 5 Noroeste 8 Noroeste 0 -- -- 94
2019-08-07 07:00:00 22.1 4 Norte 7 Noroeste 0 -- -- 96
2019-08-07 06:00:00 22.4 5 Norte 10 Norte 0 -- -- 95
2019-08-07 05:00:00 22.7 6 Noroeste 9 Noroeste 0 -- -- 96
2019-08-07 04:00:00 22 6 Noroeste 10 Noroeste 0 -- -- 94
2019-08-07 03:00:00 22.1 6 Noroeste 10 Noroeste 0 -- -- 92
2019-08-07 02:00:00 22.5 6 Noroeste 9 Noroeste 0 -- -- 92
2019-08-07 01:00:00 23 6 Noroeste 9 Noroeste 0 -- -- 91
2019-08-07 00:00:00 23.8 5 Noroeste 8 Noroeste 0 -- -- 90
2019-08-06 23:00:00 24.5 4 Noroeste 7 Noroeste 0 -- -- 88
2019-08-06 22:00:00 25.3 0 Calma 8 Norte 0 -- -- 84
2019-08-06 21:00:00 26.7 5 Nordeste 13 Nordeste 0 -- -- 80
2019-08-06 20:00:00 28.1 11 Nordeste 19 Nordeste 0 -- -- 73
2019-08-06 19:00:00 30 12 Nordeste 22 Nordeste 0 -- -- 66
2019-08-06 18:00:00 30.8 15 Nordeste 31 Nordeste 0 -- -- 62
2019-08-06 17:00:00 31 18 Nordeste 34 Nordeste 0 -- -- 63
2019-08-06 16:00:00 31.2 10 Este 23 Este 0 -- -- 68
2019-08-06 15:00:00 30.4 12 Sur 26 Sudeste 0 -- -- 71
2019-08-06 14:00:00 30.5 13 Sur 26 Sur 0 -- -- 69
2019-08-06 13:00:00 30 14 Sur 26 Sudeste 0 -- -- 70
2019-08-06 12:00:00 28.7 13 Sudeste 21 Sudeste 0 -- -- 77
2019-08-06 11:00:00 28.6 10 Sur 16 Sur 0 -- -- 76
2019-08-06 10:00:00 28.4 7 Sudeste 12 Sudeste 0 -- -- 78
2019-08-06 09:00:00 26.7 0 Calma 8 Noroeste 0 -- -- 89
2019-08-06 08:00:00 24 6 Noroeste 9 Noroeste 0 -- -- 95
2019-08-06 07:00:00 22.3 5 Noroeste 10 Norte 0 -- -- 95
2019-08-06 06:00:00 22.5 5 Noroeste 9 Noroeste 0 -- -- 95
2019-08-06 05:00:00 22.2 5 Noroeste 9 Noroeste 0 -- -- 95
2019-08-06 04:00:00 22.4 5 Noroeste 8 Noroeste 0 -- -- 94
2019-08-06 03:00:00 22.7 5 Noroeste 7 Noroeste 0 -- -- 93
2019-08-06 02:00:00 23.3 6 Noroeste 9 Noroeste 0 -- -- 92
2019-08-06 01:00:00 23.8 0 Calma 6 Noroeste 0 -- -- 91
2019-08-06 00:00:00 24.9 2 Sur 9 Sudeste 0 -- -- 90
2019-08-05 23:00:00 25.6 3 Sudeste 12 Sur 0 -- -- 89
2019-08-05 22:00:00 25.8 4 Sur 13 Sudeste 0 -- -- 89
2019-08-05 21:00:00 26.2 4 Sur 13 Sur 0 -- -- 87
2019-08-05 20:00:00 27.1 7 Sur 14 Sur 0 -- -- 82
2019-08-05 19:00:00 27.9 8 Sur 16 Sur 0 -- -- 78
2019-08-05 18:00:00 28.8 11 Sudeste 19 Sudeste 0 -- -- 69
2019-08-05 17:00:00 28.7 11 Sur 19 Sudeste 0 -- -- 74
2019-08-05 16:00:00 29 10 Sudeste 21 Sudeste 0 -- -- 73
2019-08-05 15:00:00 28.8 14 Sudeste 22 Sur 0 -- -- 73
2019-08-05 14:00:00 30.2 9 Sudeste 21 Sudeste 0 -- -- 69
2019-08-05 13:00:00 29 11 Sudeste 18 Sur 0 -- -- 71
2019-08-05 12:00:00 28.8 10 Sudeste 18 Sudeste 0 -- -- 71
2019-08-05 11:00:00 28.4 10 Sudeste 16 Sudeste 0 -- -- 71
2019-08-05 10:00:00 28.2 8 Sudeste 16 Sudeste 0 -- -- 72
2019-08-05 09:00:00 27.8 7 Sudeste 11 Sudeste 0 -- -- 74
2019-08-05 08:00:00 24.2 4 Noroeste 11 Noroeste 0 -- -- 83
2019-08-05 07:00:00 20.5 8 Noroeste 11 Noroeste 0 -- -- 89
2019-08-05 06:00:00 20.9 6 Noroeste 12 Noroeste 0 -- -- 88
2019-08-05 05:00:00 20.7 8 Noroeste 11 Noroeste 0 -- -- 89
2019-08-05 04:00:00 21.2 6 Noroeste 11 Noroeste 0 -- -- 88
2019-08-05 03:00:00 21.7 8 Noroeste 12 Noroeste 0 -- -- 87
2019-08-05 02:00:00 22.3 6 Noroeste 9 Noroeste 0 -- -- 87
2019-08-05 01:00:00 22.7 5 Noroeste 10 Noroeste 0 -- -- 84
2019-08-05 00:00:00 23 5 Noroeste 9 Noroeste 0 -- -- 83
2019-08-04 23:00:00 23.4 4 Noroeste 6 Noroeste 0 -- -- 82
2019-08-04 22:00:00 24.7 0 Calma 7 Sur 0 -- -- 79
2019-08-04 21:00:00 26.5 3 Sur 12 Sudeste 0 -- -- 75
2019-08-04 20:00:00 27.7 6 Sudeste 17 Sur 0 -- -- 69
2019-08-04 19:00:00 28.5 9 Sudeste 15 Sudeste 0 -- -- 66
2019-08-04 18:00:00 28.9 9 Sudeste 19 Sudeste 0 -- -- 60
2019-08-04 17:00:00 29.8 9 Sudeste 19 Sudeste 0 -- -- 62
2019-08-04 16:00:00 29.5 12 Sudeste 21 Sudeste 0 -- -- 55
2019-08-04 15:00:00 30.8 10 Sur 21 Sudeste 0 -- -- 47
2019-08-04 14:00:00 30.7 12 Sudeste 19 Sudeste 0 -- -- 35
2019-08-04 13:00:00 29.7 11 Sudeste 19 Sudeste 0 -- -- 53
2019-08-04 12:00:00 29.1 12 Sudeste 19 Sudeste 0 -- -- 57
2019-08-04 11:00:00 30.7 9 Sudeste 17 Sudeste 0 -- -- 47
2019-08-04 10:00:00 29.8 6 Sur 11 Sudeste 0 -- -- 45
2019-08-04 09:00:00 30.5 2 Noroeste 10 Noroeste 0 -- -- 38
2019-08-04 08:00:00 24.9 7 Noroeste 14 Noroeste 0 -- -- 46
2019-08-04 07:00:00 21.1 8 Noroeste 15 Noroeste 0 -- -- 58
2019-08-04 06:00:00 20 10 Noroeste 14 Noroeste 0 -- -- 56
2019-08-04 05:00:00 20.5 9 Noroeste 13 Noroeste 0 -- -- 55
2019-08-04 04:00:00 20.6 9 Noroeste 12 Noroeste 0 -- -- 63
2019-08-04 03:00:00 20.6 8 Noroeste 11 Noroeste 0 -- -- 72
2019-08-04 02:00:00 20.8 8 Noroeste 11 Noroeste 0 -- -- 77
2019-08-04 01:00:00 21.8 8 Noroeste 11 Noroeste 0 -- -- 82
2019-08-04 00:00:00 22.5 6 Noroeste 10 Noroeste 0 -- -- 78
2019-08-03 23:00:00 23.4 4 Noroeste 6 Noroeste 0 -- -- 75
2019-08-03 22:00:00 24.6 3 Este 7 Sudeste 0 -- -- 71
2019-08-03 21:00:00 26.3 5 Sudeste 12 Sudeste 0 -- -- 67
2019-08-03 20:00:00 27.4 8 Sur 17 Sur 0 -- -- 60
2019-08-03 19:00:00 28.4 10 Sudeste 21 Este 0 -- -- 56
2019-08-03 18:00:00 28.9 13 Sudeste 21 Sudeste 0 -- -- 58
2019-08-03 17:00:00 29.6 12 Sudeste 24 Sudeste 0 -- -- 51
2019-08-03 16:00:00 30.1 13 Sudeste 22 Sudeste 0 -- -- 53
2019-08-03 15:00:00 30.4 14 Sudeste 26 Sudeste 0 -- -- 49
2019-08-03 14:00:00 31.4 15 Sudeste 27 Sudeste 0 -- -- 45
2019-08-03 13:00:00 31.8 10 Este 27 Sudeste 0 -- -- 45
2019-08-03 12:00:00 30.5 11 Este 33 Este 0 -- -- 50
2019-08-03 11:00:00 30.4 14 Nordeste 30 Nordeste 0 -- -- 45
2019-08-03 10:00:00 30 8 Nordeste 20 Nordeste 0 -- -- 46
2019-08-03 09:00:00 29.8 2 Noroeste 11 Oeste 0 -- -- 44
2019-08-03 08:00:00 25.4 7 Noroeste 12 Noroeste 0 -- -- 52
2019-08-03 07:00:00 20.4 9 Noroeste 14 Noroeste 0 -- -- 60
2019-08-03 06:00:00 20 10 Noroeste 14 Noroeste 0 -- -- 62
2019-08-03 05:00:00 20 9 Noroeste 15 Noroeste 0 -- -- 65
2019-08-03 04:00:00 19.7 9 Noroeste 14 Noroeste 0 -- -- 71
2019-08-03 03:00:00 20.2 8 Noroeste 12 Noroeste 0 -- -- 75
2019-08-03 02:00:00 20.8 8 Noroeste 12 Noroeste 0 -- -- 78
2019-08-03 01:00:00 21.3 8 Noroeste 10 Noroeste 0 -- -- 79
2019-08-03 00:00:00 21.9 7 Noroeste 10 Noroeste 0 -- -- 76
2019-08-02 23:00:00 22.8 5 Noroeste 10 Norte 0 -- -- 72
2019-08-02 22:00:00 24.4 6 Norte 16 Nordeste 0 -- -- 69
2019-08-02 21:00:00 25.2 9 Nordeste 19 Nordeste 0 -- -- 66
2019-08-02 20:00:00 26.8 11 Nordeste 24 Nordeste 0 -- -- 56
2019-08-02 19:00:00 28.3 13 Nordeste 26 Nordeste 0 -- -- 53
2019-08-02 18:00:00 29.3 15 Nordeste 24 Nordeste 0 -- -- 54
2019-08-02 17:00:00 30 13 Nordeste 24 Nordeste 0 -- -- 51
2019-08-02 16:00:00 30.1 13 Norte 29 Nordeste 0 -- -- 51
2019-08-02 15:00:00 30.1 14 Nordeste 28 Norte 0 -- -- 49
2019-08-02 14:00:00 30.1 17 Norte 32 Nordeste 0 -- -- 51
2019-08-02 13:00:00 29.4 20 Nordeste 32 Nordeste 0 -- -- 48
2019-08-02 12:00:00 29.4 17 Nordeste 35 Nordeste 0 -- -- 51
2019-08-02 11:00:00 28.3 24 Nordeste 34 Nordeste 0 -- -- 52
2019-08-02 10:00:00 27.9 20 Nordeste 35 Norte 0 -- -- 55
2019-08-02 09:00:00 27.1 19 Nordeste 34 Nordeste 0 -- -- 52
2019-08-02 08:00:00 25.7 16 Norte 31 Norte 0 -- -- 57
2019-08-02 07:00:00 24.6 14 Norte 26 Norte 0 -- -- 71
2019-08-02 06:00:00 24.3 11 Norte 19 Norte 0 -- -- 88
2019-08-02 05:00:00 24.2 9 Norte 12 Norte 0 -- -- 91
2019-08-02 04:00:00 24.2 6 Noroeste 13 Norte 0 -- -- 89
2019-08-02 03:00:00 24.3 6 Norte 10 Noroeste 0 -- -- 87
2019-08-02 02:00:00 24.1 6 Noroeste 9 Noroeste 0 -- -- 85
2019-08-02 01:00:00 24.5 6 Noroeste 9 Noroeste 0 -- -- 84
2019-08-02 00:00:00 24.9 0 Calma 15 Noroeste 0 -- -- 84
2019-08-01 23:00:00 25.2 9 Noroeste 16 Noroeste 0 -- -- 84
2019-08-01 22:00:00 25.9 8 Norte 15 Norte 0 -- -- 82
2019-08-01 21:00:00 26.6 9 Nordeste 21 Nordeste 0 -- -- 79
2019-08-01 20:00:00 27.4 13 Nordeste 19 Este 0 -- -- 75
2019-08-01 19:00:00 28.1 7 Nordeste 16 Nordeste 0 -- -- 74
2019-08-01 18:00:00 28.2 9 Sudeste 24 Sudeste 0 -- -- 75
2019-08-01 17:00:00 29.9 14 Sudeste 22 Sudeste 0 -- -- 67
2019-08-01 16:00:00 30.2 12 Sudeste 18 Sudeste 0 -- -- 65
2019-08-01 15:00:00 30.1 9 Sudeste 23 Sudeste 0 -- -- 63
2019-08-01 14:00:00 29.8 12 Sudeste 21 Sudeste 0 -- -- 64
2019-08-01 13:00:00 29.2 9 Sudeste 18 Sudeste 0 -- -- 67
2019-08-01 12:00:00 28.3 11 Sudeste 26 Sudeste 0 -- -- 70
2019-08-01 11:00:00 28.7 13 Sudeste 24 Sudeste 0 -- -- 64
2019-08-01 10:00:00 28.1 11 Sudeste 23 Sudeste 0 -- -- 66
2019-08-01 09:00:00 27 12 Este 30 Este 0 -- -- 69
2019-08-01 08:00:00 25.6 11 Este 19 Este 0 -- -- 73
2019-08-01 07:00:00 23.9 4 Nordeste 15 Este 0 -- -- 80
2019-08-01 06:00:00 23.8 9 Este 22 Este 0 -- -- 75
2019-08-01 05:00:00 23.9 9 Nordeste 23 Este 0 -- -- 75
2019-08-01 04:00:00 23.2 6 Norte 19 Nordeste 0 -- -- 78
2019-08-01 03:00:00 23.7 6 Nordeste 14 Nordeste 0 -- -- 78
2019-08-01 02:00:00 23.2 3 Sudoeste 12 Nordeste 0 -- -- 75
2019-08-01 01:00:00 23.8 6 Nordeste 23 Este 0 -- -- 72
2019-08-01 00:00:00 24.1 8 Este 21 Este 0 -- -- 67
2019-07-31 23:00:00 24.3 12 Nordeste 20 Este 0 -- -- 67
2019-07-31 22:00:00 24.8 9 Nordeste 21 Este 0 -- -- 65
2019-07-31 21:00:00 24.9 10 Este 28 Nordeste 0 -- -- 67
2019-07-31 20:00:00 25.9 14 Nordeste 25 Nordeste 0 -- -- 63
2019-07-31 19:00:00 26.6 13 Este 22 Nordeste 0 -- -- 59
2019-07-31 18:00:00 27.2 7 Nordeste 26 Este 0 -- -- 57
2019-07-31 17:00:00 28.7 13 Este 25 Sudeste 0 -- -- 50
2019-07-31 16:00:00 28.3 15 Este 32 Este 0 -- -- 48
2019-07-31 15:00:00 28.5 19 Este 33 Este 0 -- -- 47
2019-07-31 14:00:00 26.7 17 Este 27 Este 0 -- -- 53
2019-07-31 13:00:00 26.7 16 Nordeste 30 Este 0 -- -- 55
2019-07-31 12:00:00 27.4 14 Este 33 Nordeste 0 -- -- 53
2019-07-31 11:00:00 27 21 Nordeste 40 Este 0 -- -- 56
2019-07-31 10:00:00 26.6 14 Nordeste 31 Nordeste 0 -- -- 62
2019-07-31 09:00:00 25.8 12 Nordeste 31 Nordeste 0 -- -- 64
2019-07-31 08:00:00 24.7 10 Nordeste 31 Nordeste 0 -- -- 68
2019-07-31 07:00:00 23.6 12 Nordeste 24 Nordeste 0 -- -- 69
2019-07-31 06:00:00 23.7 13 Nordeste 26 Norte 0 -- -- 73
2019-07-31 05:00:00 23.7 10 Nordeste 28 Nordeste 0 -- -- 72
2019-07-31 04:00:00 23.8 14 Nordeste 23 Nordeste 0 -- -- 72
2019-07-31 03:00:00 23.7 10 Nordeste 23 Nordeste 0 -- -- 74
2019-07-31 02:00:00 23.9 9 Nordeste 21 Nordeste 0 -- -- 74
2019-07-31 01:00:00 24.1 7 Nordeste 17 Este 0 -- -- 72
2019-07-31 00:00:00 24.4 9 Este 15 Este 0 -- -- 74
2019-07-30 23:00:00 24.5 5 Este 14 Este 0 -- -- 78
2019-07-30 22:00:00 24.6 5 Este 16 Sudeste 0 -- -- 79
2019-07-30 21:00:00 25.2 10 Sudeste 18 Este 0 -- -- 78
2019-07-30 20:00:00 26.2 12 Sudeste 23 Sudeste 0 -- -- 76
2019-07-30 19:00:00 27.2 14 Sudeste 25 Sudeste 0 -- -- 74
2019-07-30 18:00:00 28.3 15 Sudeste 25 Sudeste 0 -- -- 72
2019-07-30 17:00:00 28.9 14 Sudeste 28 Sudeste 0 -- -- 69
2019-07-30 16:00:00 29.3 14 Sudeste 27 Este 0 -- -- 68
2019-07-30 15:00:00 30.1 15 Sudeste 24 Sudeste 0 -- -- 62
2019-07-30 14:00:00 30.9 14 Sudeste 24 Sudeste 0 -- -- 54
2019-07-30 13:00:00 30.9 14 Sudeste 23 Sudeste 0 -- -- 50
2019-07-30 12:00:00 30.6 13 Este 26 Nordeste 0 -- -- 50
2019-07-30 11:00:00 30.9 8 Nordeste 16 Norte 0 -- -- 43
2019-07-30 10:00:00 29.9 6 Sudeste 17 Este 0 -- -- 49
2019-07-30 09:00:00 28.5 0 Calma 6 Noroeste 0 -- -- 57
2019-07-30 08:00:00 24.4 5 Noroeste 10 Noroeste 0 -- -- 82
2019-07-30 07:00:00 20.1 7 Noroeste 10 Noroeste 0 -- -- 93
2019-07-30 06:00:00 20.1 7 Noroeste 12 Noroeste 0 -- -- 93
2019-07-30 05:00:00 19.8 5 Noroeste 8 Noroeste 0 -- -- 90
2019-07-30 04:00:00 20.4 3 Norte 9 Noroeste 0 -- -- 89
2019-07-30 03:00:00 20.9 6 Noroeste 9 Noroeste 0 -- -- 86
2019-07-30 02:00:00 21.6 4 Noroeste 10 Noroeste 0 -- -- 83
2019-07-30 01:00:00 22.2 2 Nordeste 10 Oeste 0 -- -- 79
2019-07-30 00:00:00 22.9 3 Sudoeste 9 Noroeste 0 -- -- 76
2019-07-29 23:00:00 24.3 3 Noroeste 9 Noroeste 0 -- -- 71
2019-07-29 22:00:00 25.9 3 Noroeste 19 Oeste 0 -- -- 64
2019-07-29 21:00:00 27.9 10 Oeste 18 Oeste 0 -- -- 56
2019-07-29 20:00:00 29.3 10 Sudoeste 22 Sudoeste 0 -- -- 50
2019-07-29 19:00:00 29.8 12 Sudoeste 33 Sur 0 -- -- 56
2019-07-29 18:00:00 29.6 19 Sudoeste 34 Sudoeste 0 -- -- 60
2019-07-29 17:00:00 29.3 23 Sudoeste 40 Sudoeste 0 -- -- 61
2019-07-29 16:00:00 29.1 24 Sudoeste 40 Sur 0 -- -- 62
2019-07-29 15:00:00 31.1 17 Sudoeste 30 Sudoeste 0 -- -- 53
2019-07-29 14:00:00 29 17 Sur 30 Sudoeste 0 -- -- 64
2019-07-29 13:00:00 28.5 16 Sur 28 Sur 0 -- -- 65
2019-07-29 12:00:00 28.1 14 Sur 28 Sur 0 -- -- 67
2019-07-29 11:00:00 27.8 12 Sudeste 21 Sudeste 0 -- -- 66
2019-07-29 10:00:00 28.3 7 Oeste 15 Oeste 0 -- -- 54
2019-07-29 09:00:00 26.9 7 Oeste 12 Oeste 0 -- -- 61
2019-07-29 08:00:00 22.3 4 Noroeste 10 Noroeste 0 -- -- 78
2019-07-29 07:00:00 18.1 7 Noroeste 13 Noroeste 0 -- -- 90
2019-07-29 06:00:00 18.3 8 Noroeste 14 Noroeste 0 -- -- 90
2019-07-29 05:00:00 18.4 8 Noroeste 14 Noroeste 0 -- -- 90
2019-07-29 04:00:00 18.8 7 Noroeste 10 Noroeste 0 -- -- 88
2019-07-29 03:00:00 19 6 Noroeste 12 Noroeste 0 -- -- 88
2019-07-29 02:00:00 19.3 9 Noroeste 12 Noroeste 0 -- -- 91
2019-07-29 01:00:00 20.6 4 Norte 18 Oeste 0 -- -- 88
2019-07-29 00:00:00 21.3 8 Noroeste 14 Oeste 0 -- -- 87
2019-07-28 23:00:00 21.1 7 Noroeste 9 Noroeste 0 -- -- 80
2019-07-28 22:00:00 22.7 4 Oeste 13 Noroeste 0 -- -- 74
2019-07-28 21:00:00 24.8 8 Oeste 23 Sudoeste 0 -- -- 66
2019-07-28 20:00:00 25.9 12 Sudeste 23 Sudeste 0 -- -- 61
2019-07-28 19:00:00 26.8 10 Sudeste 22 Sudeste 0 -- -- 64
2019-07-28 18:00:00 26.8 11 Sur 26 Sudeste 0 -- -- 64
2019-07-28 17:00:00 26.1 7 Oeste 27 Sudoeste 0.2 -- -- 74
2019-07-28 16:00:00 24.8 6 Sur 21 Sur 0.4 -- -- 76
2019-07-28 15:00:00 25.2 10 Sur 26 Sur 0 -- -- 72
2019-07-28 14:00:00 27.5 13 Sur 25 Sudeste 0 -- -- 60
2019-07-28 13:00:00 26.5 12 Sur 27 Sur 0 -- -- 63
2019-07-28 12:00:00 27.4 13 Sur 22 Sudeste 0 -- -- 59
2019-07-28 11:00:00 26.8 11 Sur 23 Sudeste 0 -- -- 62
2019-07-28 10:00:00 26.9 10 Sudeste 17 Sudeste 0 -- -- 62
2019-07-28 09:00:00 26.4 5 Sudeste 9 Este 0 -- -- 62
2019-07-28 08:00:00 22.9 4 Noroeste 10 Noroeste 0 -- -- 80
2019-07-28 07:00:00 20.3 5 Noroeste 10 Noroeste 0 -- -- 88
2019-07-28 06:00:00 20.5 5 Noroeste 9 Noroeste 0 -- -- 87
2019-07-28 05:00:00 21.8 3 Nordeste 15 Nordeste 0 -- -- 84
2019-07-28 04:00:00 22.4 8 Nordeste 18 Este 0 -- -- 83
2019-07-28 03:00:00 23.2 11 Nordeste 21 Norte 0 -- -- 81
2019-07-28 02:00:00 23.8 14 Nordeste 24 Norte 0 -- -- 78
2019-07-28 01:00:00 24.9 4 Noroeste 11 Noroeste 0 -- -- 72
2019-07-28 00:00:00 25.2 5 Noroeste 13 Noroeste 0 -- -- 71
2019-07-27 23:00:00 25.2 0 Calma 9 Oeste 0 -- -- 73
2019-07-26 12:00:00 -- -- -- -- -- -- -- -- --
2019-07-26 11:00:00 28.8 10 Sudeste 16 Sur 0 -- -- 66
2019-07-26 10:00:00 28.7 5 Sudeste 12 Sur 0 -- -- 74
2019-07-26 09:00:00 27.9 8 Sudeste 13 Sudeste 0 -- -- 76
2019-07-26 08:00:00 25.4 7 Noroeste 12 Noroeste 0 -- -- 82
2019-07-26 07:00:00 21.3 8 Noroeste 13 Noroeste 0 -- -- 91
2019-07-26 06:00:00 21.2 7 Noroeste 12 Noroeste 0 -- -- 89
2019-07-26 05:00:00 21 8 Noroeste 12 Noroeste 0 -- -- 89
2019-07-26 04:00:00 21 8 Noroeste 10 Noroeste 0 -- -- 88
2019-07-26 03:00:00 21.7 7 Noroeste 12 Noroeste 0 -- -- 87
2019-07-26 02:00:00 22.2 6 Noroeste 10 Noroeste 0 -- -- 87
2019-07-26 01:00:00 22.4 7 Noroeste 9 Noroeste 0 -- -- 86
2019-07-26 00:00:00 23.1 6 Noroeste 8 Noroeste 0 -- -- 86
2019-07-25 23:00:00 24.1 5 Noroeste 6 Noroeste 0 -- -- 84
2019-07-25 22:00:00 25.9 0 Calma 9 Sudeste 0 -- -- 78
2019-07-25 21:00:00 27 3 Sudeste 13 Sudeste 0 -- -- 76
2019-07-25 20:00:00 27.7 8 Sudeste 16 Sudeste 0 -- -- 74
2019-07-25 19:00:00 28.8 8 Sudeste 17 Sudeste 0 -- -- 70
2019-07-25 18:00:00 29 10 Sudeste 21 Sudeste 0 -- -- 72
2019-07-25 17:00:00 29.7 12 Sudeste 22 Sudeste 0 -- -- 68
2019-07-25 16:00:00 29.8 12 Sudeste 23 Sudeste 0 -- -- 64
2019-07-25 15:00:00 29.8 10 Sudeste 20 Sudeste 0 -- -- 67
2019-07-25 14:00:00 29.6 12 Sudeste 21 Sudeste 0 -- -- 67
2019-07-25 13:00:00 29.1 12 Sudeste 21 Sudeste 0 -- -- 71
2019-07-25 12:00:00 28.7 13 Sudeste 22 Sudeste 0 -- -- 75
2019-07-25 11:00:00 28.8 13 Sudeste 22 Sudeste 0 -- -- 72
2019-07-25 10:00:00 28.6 10 Sudeste 17 Sudeste 0 -- -- 74
2019-07-25 09:00:00 28.2 2 Este 6 Este 0 -- -- 76
2019-07-25 08:00:00 25.6 5 Noroeste 10 Noroeste 0 -- -- 91
2019-07-25 07:00:00 22.1 4 Noroeste 9 Noroeste 0 -- -- 95
2019-07-25 06:00:00 22 6 Noroeste 8 Norte 0 -- -- 94
2019-07-25 05:00:00 22.1 6 Noroeste 9 Noroeste 0 -- -- 94
2019-07-25 04:00:00 22.3 6 Noroeste 9 Noroeste 0 -- -- 93
2019-07-25 03:00:00 22.7 6 Noroeste 9 Noroeste 0 -- -- 92
2019-07-25 02:00:00 22.7 6 Noroeste 8 Noroeste 0 -- -- 90
2019-07-25 01:00:00 23.2 5 Noroeste 8 Noroeste 0 -- -- 89
2019-07-25 00:00:00 23.8 5 Noroeste 6 Norte 0 -- -- 88
2019-07-24 23:00:00 24.7 0 Calma 6 Sudeste 0 -- -- 86
2019-07-24 22:00:00 26 4 Sudeste 9 Sudeste 0 -- -- 84
2019-07-24 21:00:00 26.5 6 Sudeste 13 Sudeste 0 -- -- 81
2019-07-24 20:00:00 27.6 9 Sudeste 17 Sudeste 0 -- -- 75
2019-07-24 19:00:00 28.5 10 Sudeste 18 Sudeste 0 -- -- 68
2019-07-24 18:00:00 28.9 11 Sudeste 21 Sudeste 0 -- -- 67
2019-07-24 17:00:00 29.5 13 Sudeste 25 Sudeste 0 -- -- 64
2019-07-24 16:00:00 30.3 17 Sudeste 26 Este 0 -- -- 54
2019-07-24 15:00:00 31.4 11 Sudeste 26 Sudeste 0 -- -- 44
2019-07-24 14:00:00 30.4 15 Sudeste 26 Sudeste 0 -- -- 60
2019-07-24 13:00:00 30.1 14 Sudeste 25 Sudeste 0 -- -- 63
2019-07-24 12:00:00 29.5 14 Sudeste 21 Sudeste 0 -- -- 59
2019-07-24 11:00:00 30.2 10 Sudeste 15 Sudeste 0 -- -- 53
2019-07-24 10:00:00 30.4 5 Sur 9 Sudeste 0 -- -- 43
2019-07-24 09:00:00 29.5 0 Calma 8 Noroeste 0 -- -- 62
2019-07-24 08:00:00 25.4 6 Noroeste 11 Noroeste 0 -- -- 71
2019-07-24 07:00:00 20.8 9 Noroeste 13 Noroeste 0 -- -- 84
2019-07-24 06:00:00 20.4 9 Noroeste 13 Noroeste 0 -- -- 83
2019-07-24 05:00:00 20.6 8 Noroeste 11 Noroeste 0 -- -- 85
2019-07-24 04:00:00 21 6 Noroeste 10 Noroeste 0 -- -- 89
2019-07-24 03:00:00 22.4 6 Noroeste 10 Oeste 0 -- -- 91
2019-07-24 02:00:00 22.6 7 Noroeste 11 Noroeste 0 -- -- 90
2019-07-24 01:00:00 22.7 8 Noroeste 9 Noroeste 0 -- -- 88
2019-07-24 00:00:00 23.3 5 Noroeste 7 Noroeste 0 -- -- 86
2019-07-23 23:00:00 24 0 Calma 5 Sudeste 0 -- -- 83
2019-07-23 22:00:00 25.5 0 Calma 8 Sudeste 0 -- -- 79
2019-07-23 21:00:00 26.8 5 Sudeste 14 Sudeste 0 -- -- 75
2019-07-23 20:00:00 28 8 Sudeste 17 Sudeste 0 -- -- 70
2019-07-23 19:00:00 28.7 10 Sudeste 20 Sudeste 0 -- -- 67
2019-07-23 18:00:00 29.3 13 Sudeste 19 Sudeste 0 -- -- 62
2019-07-23 17:00:00 30 10 Sudeste 21 Sudeste 0 -- -- 60
2019-07-23 16:00:00 29.8 12 Sudeste 19 Sudeste 0 -- -- 59
2019-07-23 15:00:00 31 10 Sudeste 20 Sudeste 0 -- -- 54
2019-07-23 14:00:00 30.2 10 Sudeste 20 Sudeste 0 -- -- 56
2019-07-23 13:00:00 30.4 12 Sudeste 18 Sudeste 0 -- -- 50
2019-07-23 12:00:00 31.1 9 Sudeste 17 Sudeste 0 -- -- 39
2019-07-23 11:00:00 30.2 9 Sudeste 15 Sudeste 0 -- -- 49
2019-07-23 10:00:00 29 5 Sur 10 Sudeste 0 -- -- 56
2019-07-23 09:00:00 29.1 0 Calma 8 Noroeste 0 -- -- 64
2019-07-23 08:00:00 24.9 7 Noroeste 11 Noroeste 0 -- -- 67
2019-07-23 07:00:00 20.9 9 Noroeste 12 Noroeste 0 -- -- 87
2019-07-23 06:00:00 20.8 9 Noroeste 12 Noroeste 0 -- -- 87
2019-07-23 05:00:00 21.1 8 Noroeste 11 Noroeste 0 -- -- 86
2019-07-23 04:00:00 21.1 9 Noroeste 11 Noroeste 0 -- -- 85
2019-07-23 03:00:00 21.5 9 Noroeste 11 Noroeste 0 -- -- 83
2019-07-23 02:00:00 21.8 6 Noroeste 10 Noroeste 0 -- -- 80
2019-07-23 01:00:00 22.4 7 Noroeste 10 Noroeste 0 -- -- 76
2019-07-23 00:00:00 22.7 6 Noroeste 8 Noroeste 0 -- -- 75
2019-07-22 23:00:00 23.5 6 Noroeste 8 Noroeste 0 -- -- 74
2019-07-22 22:00:00 24.9 3 Noroeste 6 Sudeste 0 -- -- 72
2019-07-22 21:00:00 27 4 Sudeste 10 Sudeste 0 -- -- 66
2019-07-22 20:00:00 28.6 5 Sudeste 10 Sudeste 0 -- -- 57
2019-07-22 19:00:00 29.6 6 Sudeste 11 Sur 0 -- -- 49
2019-07-22 18:00:00 29.9 8 Sur 17 Sudeste 0 -- -- 50
2019-07-22 17:00:00 31.2 9 Sur 17 Sudeste 0 -- -- 41
2019-07-22 16:00:00 31.7 9 Sur 18 Sudeste 0 -- -- 34
2019-07-22 15:00:00 31 10 Sudeste 16 Sur 0 -- -- 41
2019-07-22 14:00:00 30.6 9 Sudeste 17 Sudeste 0 -- -- 45
2019-07-22 13:00:00 29.8 9 Sudeste 18 Sudeste 0 -- -- 58
2019-07-22 12:00:00 28.8 12 Sudeste 20 Sudeste 0 -- -- 65
2019-07-22 11:00:00 28.6 8 Sudeste 15 Sudeste 0 -- -- 69
2019-07-22 10:00:00 27.9 7 Sudeste 13 Sudeste 0 -- -- 75
2019-07-22 09:00:00 28.3 0 Calma 6 Noroeste 0 -- -- 71
2019-07-22 08:00:00 25.5 6 Noroeste 10 Noroeste 0 -- -- 79
2019-07-22 07:00:00 21.2 7 Noroeste 10 Noroeste 0 -- -- 88
2019-07-22 06:00:00 21.2 7 Noroeste 10 Noroeste 0 -- -- 84
2019-07-22 05:00:00 20.9 6 Noroeste 11 Noroeste 0 -- -- 77
2019-07-22 04:00:00 20.6 8 Noroeste 11 Noroeste 0 -- -- 75
2019-07-22 03:00:00 21.8 8 Noroeste 12 Oeste 0 -- -- 72
2019-07-22 02:00:00 21.9 8 Noroeste 11 Noroeste 0 -- -- 75
2019-07-22 01:00:00 22.2 7 Noroeste 11 Noroeste 0 -- -- 75
2019-07-22 00:00:00 22.7 6 Noroeste 10 Noroeste 0 -- -- 74
2019-07-21 23:00:00 23.3 6 Noroeste 9 Noroeste 0 -- -- 74
2019-07-21 22:00:00 24.3 4 Noroeste 6 Noroeste 0 -- -- 74
2019-07-21 21:00:00 26.2 3 Sudeste 9 Sudeste 0 -- -- 71
2019-07-21 20:00:00 27.2 6 Sudeste 14 Sudeste 0 -- -- 69
2019-07-21 19:00:00 27.8 8 Sudeste 16 Este 0 -- -- 68
2019-07-21 18:00:00 28.6 8 Sudeste 19 Sudeste 0 -- -- 67
2019-07-21 17:00:00 28.4 13 Sudeste 21 Sudeste 0 -- -- 69
2019-07-21 16:00:00 29.1 12 Sudeste 23 Sudeste 0 -- -- 66
2019-07-21 15:00:00 29 14 Sudeste 24 Sudeste 0 -- -- 65
2019-07-21 14:00:00 28.8 15 Sudeste 25 Sudeste 0 -- -- 67
2019-07-21 13:00:00 28.6 15 Sudeste 23 Este 0 -- -- 65
2019-07-21 12:00:00 28.7 13 Sudeste 24 Sudeste 0 -- -- 68
2019-07-21 11:00:00 28.5 14 Sudeste 24 Sudeste 0 -- -- 68
2019-07-21 10:00:00 28.3 13 Sudeste 23 Sudeste 0 -- -- 70
2019-07-21 09:00:00 27.5 11 Este 22 Sudeste 0 -- -- 74
2019-07-21 08:00:00 25.8 9 Este 21 Este 0 -- -- 84
2019-07-21 07:00:00 22 3 Norte 8 Nordeste 0 -- -- 94
2019-07-21 06:00:00 21 4 Noroeste 10 Noroeste 0 -- -- 93
2019-07-21 05:00:00 21.2 6 Noroeste 9 Noroeste 0 -- -- 92
2019-07-21 04:00:00 21.4 7 Noroeste 10 Noroeste 0 -- -- 91
2019-07-21 03:00:00 21.5 8 Noroeste 11 Noroeste 0 -- -- 90
2019-07-21 02:00:00 21.8 5 Noroeste 9 Noroeste 0 -- -- 89
2019-07-21 01:00:00 22.1 7 Noroeste 9 Oeste 0 -- -- 87
2019-07-21 00:00:00 22.4 6 Noroeste 9 Noroeste 0 -- -- 85
2019-07-20 23:00:00 23.3 4 Noroeste 6 Sudeste 0 -- -- 82
2019-07-20 22:00:00 25.1 3 Sudeste 12 Este 0 -- -- 78
2019-07-20 21:00:00 25.8 8 Sudeste 15 Sudeste 0 -- -- 78
2019-07-20 20:00:00 26.7 9 Sudeste 19 Sudeste 0 -- -- 72
2019-07-20 19:00:00 27.5 13 Sudeste 23 Sudeste 0 -- -- 69
2019-07-20 18:00:00 28.2 11 Sudeste 26 Sudeste 0 -- -- 69
2019-07-20 17:00:00 28.2 15 Sudeste 25 Sudeste 0 -- -- 68
2019-07-20 16:00:00 28.9 12 Sudeste 22 Sudeste 0 -- -- 65
2019-07-20 15:00:00 28.7 13 Sudeste 23 Sur 0 -- -- 65
2019-07-20 14:00:00 29.1 12 Sudeste 24 Este 0 -- -- 64
2019-07-20 13:00:00 28.4 15 Sudeste 22 Sudeste 0 -- -- 65
2019-07-20 12:00:00 28.2 13 Sudeste 20 Sudeste 0 -- -- 66
2019-07-20 11:00:00 28 13 Sudeste 21 Sudeste 0 -- -- 68
2019-07-20 10:00:00 27.9 12 Sudeste 20 Sudeste 0 -- -- 68
2019-07-20 09:00:00 27.5 9 Este 14 Este 0 -- -- 68
2019-07-20 08:00:00 25.8 4 Noroeste 10 Noroeste 0 -- -- 81
2019-07-20 07:00:00 21.1 7 Noroeste 10 Noroeste 0 -- -- 92
2019-07-20 06:00:00 21 7 Noroeste 10 Norte 0 -- -- 91
2019-07-20 05:00:00 21.2 7 Noroeste 9 Noroeste 0 -- -- 90
2019-07-20 04:00:00 21.9 0 Calma 6 Este 0 -- -- 89
2019-07-20 03:00:00 21.7 4 Noroeste 8 Noroeste 0 -- -- 88
2019-07-20 02:00:00 22.2 5 Noroeste 7 Noroeste 0 -- -- 86
2019-07-20 01:00:00 23.5 3 Noroeste 9 Sudeste 0 -- -- 83
2019-07-20 00:00:00 25 6 Sudeste 15 Sudeste 0 -- -- 80
2019-07-19 23:00:00 25.2 7 Sudeste 14 Sudeste 0 -- -- 80
2019-07-19 22:00:00 25.4 5 Sur 14 Sur 0 -- -- 78
2019-07-19 21:00:00 25.9 5 Sur 15 Sudeste 0 -- -- 74
2019-07-19 20:00:00 26.8 8 Sudeste 20 Sudeste 0 -- -- 69
2019-07-19 19:00:00 27.8 9 Sudeste 19 Sudeste 0 -- -- 63
2019-07-19 18:00:00 28.2 12 Sudeste 23 Sur 0 -- -- 61
2019-07-19 17:00:00 28 14 Sudeste 26 Sudeste 0 -- -- 62
2019-07-19 16:00:00 28.4 14 Sudeste 26 Sudeste 0 -- -- 64
2019-07-19 15:00:00 28.5 12 Sudeste 23 Sudeste 0 -- -- 66
2019-07-19 14:00:00 28.2 12 Sur 24 Sudeste 0 -- -- 70
2019-07-19 13:00:00 28.2 12 Sudeste 21 Sudeste 0 -- -- 71
2019-07-19 12:00:00 27.7 13 Sudeste 22 Sudeste 0 -- -- 72
2019-07-19 11:00:00 27.8 9 Sudeste 18 Sudeste 0 -- -- 72
2019-07-19 10:00:00 27.5 8 Sudeste 15 Este 0 -- -- 70
2019-07-19 09:00:00 27.2 6 Este 10 Este 0 -- -- 69
2019-07-19 08:00:00 26.2 4 Noroeste 10 Noroeste 0 -- -- 66
2019-07-19 07:00:00 20.1 6 Noroeste 10 Noroeste 0 -- -- 83
2019-07-19 06:00:00 20.1 8 Noroeste 10 Noroeste 0 -- -- 82
2019-07-19 05:00:00 20.2 8 Noroeste 11 Noroeste 0 -- -- 81
2019-07-19 04:00:00 20.4 8 Noroeste 11 Noroeste 0 -- -- 79
2019-07-19 03:00:00 20.9 7 Noroeste 11 Noroeste 0 -- -- 75
2019-07-19 02:00:00 21.3 6 Noroeste 10 Noroeste 0 -- -- 73
2019-07-19 01:00:00 21.9 5 Norte 8 Noroeste 0 -- -- 69
2019-07-19 00:00:00 23.2 0 Calma 11 Oeste 0 -- -- 66